sensor_id;sensor_type;location;lat;lon;timestamp;P1;durP1;ratioP1;P2;durP2;ratioP2
23956;SDS011;12165;45.458;11.062;2022-08-19T00:01:33;7.97;;;1.58;;
23956;SDS011;12165;45.458;11.062;2022-08-19T00:04:04;7.15;;;1.70;;
23956;SDS011;12165;45.458;11.062;2022-08-19T00:06:33;6.05;;;2.05;;
23956;SDS011;12165;45.458;11.062;2022-08-19T00:09:02;4.00;;;1.60;;
23956;SDS011;12165;45.458;11.062;2022-08-19T00:11:31;7.10;;;1.83;;
23956;SDS011;12165;45.458;11.062;2022-08-19T00:13:58;6.30;;;1.90;;
23956;SDS011;12165;45.458;11.062;2022-08-19T00:16:25;9.02;;;2.83;;
23956;SDS011;12165;45.458;11.062;2022-08-19T00:18:53;7.63;;;2.40;;
23956;SDS011;12165;45.458;11.062;2022-08-19T00:21:24;11.13;;;2.83;;
23956;SDS011;12165;45.458;11.062;2022-08-19T00:23:56;12.88;;;3.92;;
23956;SDS011;12165;45.458;11.062;2022-08-19T00:26:27;8.13;;;3.08;;
23956;SDS011;12165;45.458;11.062;2022-08-19T00:28:54;8.10;;;2.45;;
23956;SDS011;12165;45.458;11.062;2022-08-19T00:31:21;8.50;;;2.40;;
23956;SDS011;12165;45.458;11.062;2022-08-19T00:33:48;9.15;;;2.08;;
23956;SDS011;12165;45.458;11.062;2022-08-19T00:36:16;8.10;;;2.00;;
23956;SDS011;12165;45.458;11.062;2022-08-19T00:38:44;5.88;;;1.90;;
23956;SDS011;12165;45.458;11.062;2022-08-19T00:41:15;7.20;;;1.67;;
23956;SDS011;12165;45.458;11.062;2022-08-19T00:44:00;7.93;;;1.50;;
23956;SDS011;12165;45.458;11.062;2022-08-19T00:46:28;6.93;;;2.20;;
23956;SDS011;12165;45.458;11.062;2022-08-19T00:48:55;7.85;;;2.72;;
23956;SDS011;12165;45.458;11.062;2022-08-19T00:51:24;10.38;;;2.97;;
23956;SDS011;12165;45.458;11.062;2022-08-19T00:53:54;8.18;;;3.00;;
23956;SDS011;12165;45.458;11.062;2022-08-19T00:56:23;7.35;;;2.40;;
23956;SDS011;12165;45.458;11.062;2022-08-19T00:58:50;8.15;;;2.28;;
23956;SDS011;12165;45.458;11.062;2022-08-19T01:01:17;6.50;;;2.55;;
23956;SDS011;12165;45.458;11.062;2022-08-19T01:03:44;5.70;;;2.08;;
23956;SDS011;12165;45.458;11.062;2022-08-19T01:06:24;11.85;;;2.50;;
23956;SDS011;12165;45.458;11.062;2022-08-19T01:08:53;11.60;;;2.45;;
23956;SDS011;12165;45.458;11.062;2022-08-19T01:11:21;10.48;;;2.60;;
23956;SDS011;12165;45.458;11.062;2022-08-19T01:13:48;7.00;;;2.67;;
23956;SDS011;12165;45.458;11.062;2022-08-19T01:16:16;9.95;;;3.00;;
23956;SDS011;12165;45.458;11.062;2022-08-19T01:18:45;9.70;;;2.70;;
23956;SDS011;12165;45.458;11.062;2022-08-19T01:21:23;11.43;;;2.97;;
23956;SDS011;12165;45.458;11.062;2022-08-19T01:23:55;10.25;;;3.35;;
23956;SDS011;12165;45.458;11.062;2022-08-19T01:26:23;11.30;;;3.13;;
23956;SDS011;12165;45.458;11.062;2022-08-19T01:28:52;7.45;;;2.35;;
23956;SDS011;12165;45.458;11.062;2022-08-19T01:31:27;12.18;;;3.28;;
23956;SDS011;12165;45.458;11.062;2022-08-19T01:33:58;6.00;;;2.20;;
23956;SDS011;12165;45.458;11.062;2022-08-19T01:36:29;9.65;;;2.33;;
23956;SDS011;12165;45.458;11.062;2022-08-19T01:38:59;7.82;;;2.00;;
23956;SDS011;12165;45.458;11.062;2022-08-19T01:41:29;6.57;;;2.28;;
23956;SDS011;12165;45.458;11.062;2022-08-19T01:43:55;7.82;;;2.53;;
23956;SDS011;12165;45.458;11.062;2022-08-19T01:46:43;8.25;;;2.25;;
23956;SDS011;12165;45.458;11.062;2022-08-19T01:49:10;7.32;;;2.47;;
23956;SDS011;12165;45.458;11.062;2022-08-19T01:51:37;12.35;;;2.47;;
23956;SDS011;12165;45.458;11.062;2022-08-19T01:54:06;10.85;;;2.65;;
23956;SDS011;12165;45.458;11.062;2022-08-19T01:56:35;5.80;;;2.25;;
23956;SDS011;12165;45.458;11.062;2022-08-19T01:59:03;9.00;;;2.65;;
23956;SDS011;12165;45.458;11.062;2022-08-19T02:01:36;13.82;;;2.63;;
23956;SDS011;12165;45.458;11.062;2022-08-19T02:04:03;16.48;;;3.35;;
23956;SDS011;12165;45.458;11.062;2022-08-19T02:06:32;10.35;;;2.50;;
23956;SDS011;12165;45.458;11.062;2022-08-19T02:08:59;9.60;;;2.70;;
23956;SDS011;12165;45.458;11.062;2022-08-19T02:11:28;7.90;;;2.67;;
23956;SDS011;12165;45.458;11.062;2022-08-19T02:13:58;9.05;;;3.20;;
23956;SDS011;12165;45.458;11.062;2022-08-19T02:16:26;11.60;;;3.63;;
23956;SDS011;12165;45.458;11.062;2022-08-19T02:18:53;9.00;;;2.70;;
23956;SDS011;12165;45.458;11.062;2022-08-19T02:21:21;9.55;;;2.92;;
23956;SDS011;12165;45.458;11.062;2022-08-19T02:23:50;10.02;;;2.83;;
23956;SDS011;12165;45.458;11.062;2022-08-19T02:26:17;13.43;;;3.42;;
23956;SDS011;12165;45.458;11.062;2022-08-19T02:28:45;11.30;;;3.13;;
23956;SDS011;12165;45.458;11.062;2022-08-19T02:31:14;9.18;;;3.33;;
23956;SDS011;12165;45.458;11.062;2022-08-19T02:33:43;10.75;;;3.25;;
23956;SDS011;12165;45.458;11.062;2022-08-19T02:36:11;10.30;;;2.90;;
23956;SDS011;12165;45.458;11.062;2022-08-19T02:38:41;10.38;;;3.30;;
23956;SDS011;12165;45.458;11.062;2022-08-19T02:41:22;10.27;;;2.70;;
23956;SDS011;12165;45.458;11.062;2022-08-19T02:43:52;8.90;;;2.50;;
23956;SDS011;12165;45.458;11.062;2022-08-19T02:46:40;8.82;;;2.88;;
23956;SDS011;12165;45.458;11.062;2022-08-19T02:49:07;10.13;;;2.50;;
23956;SDS011;12165;45.458;11.062;2022-08-19T02:51:36;9.30;;;2.78;;
23956;SDS011;12165;45.458;11.062;2022-08-19T02:54:06;12.32;;;2.80;;
23956;SDS011;12165;45.458;11.062;2022-08-19T02:56:34;9.85;;;2.67;;
23956;SDS011;12165;45.458;11.062;2022-08-19T02:59:03;12.05;;;2.65;;
23956;SDS011;12165;45.458;11.062;2022-08-19T03:01:37;11.93;;;2.40;;
23956;SDS011;12165;45.458;11.062;2022-08-19T03:04:06;10.00;;;2.53;;
23956;SDS011;12165;45.458;11.062;2022-08-19T03:06:38;10.80;;;2.63;;
23956;SDS011;12165;45.458;11.062;2022-08-19T03:09:07;11.07;;;2.17;;
23956;SDS011;12165;45.458;11.062;2022-08-19T03:11:34;7.55;;;2.42;;
23956;SDS011;12165;45.458;11.062;2022-08-19T03:14:02;9.52;;;2.35;;
23956;SDS011;12165;45.458;11.062;2022-08-19T03:16:36;8.25;;;2.65;;
23956;SDS011;12165;45.458;11.062;2022-08-19T03:19:15;8.23;;;2.13;;
23956;SDS011;12165;45.458;11.062;2022-08-19T03:21:43;9.90;;;2.80;;
23956;SDS011;12165;45.458;11.062;2022-08-19T03:24:11;10.07;;;2.63;;
23956;SDS011;12165;45.458;11.062;2022-08-19T03:26:40;7.68;;;2.30;;
23956;SDS011;12165;45.458;11.062;2022-08-19T03:29:09;9.93;;;2.55;;
23956;SDS011;12165;45.458;11.062;2022-08-19T03:31:39;6.88;;;2.33;;
23956;SDS011;12165;45.458;11.062;2022-08-19T03:34:23;10.63;;;2.95;;
23956;SDS011;12165;45.458;11.062;2022-08-19T03:36:55;10.35;;;2.50;;
23956;SDS011;12165;45.458;11.062;2022-08-19T03:39:24;6.63;;;2.20;;
23956;SDS011;12165;45.458;11.062;2022-08-19T03:41:53;9.65;;;2.50;;
23956;SDS011;12165;45.458;11.062;2022-08-19T03:44:43;10.20;;;2.33;;
23956;SDS011;12165;45.458;11.062;2022-08-19T03:47:11;8.98;;;2.58;;
23956;SDS011;12165;45.458;11.062;2022-08-19T03:49:42;8.40;;;1.92;;
23956;SDS011;12165;45.458;11.062;2022-08-19T03:52:09;9.48;;;2.85;;
23956;SDS011;12165;45.458;11.062;2022-08-19T03:54:36;10.23;;;2.25;;
23956;SDS011;12165;45.458;11.062;2022-08-19T03:57:04;8.00;;;2.53;;
23956;SDS011;12165;45.458;11.062;2022-08-19T03:59:33;8.95;;;2.40;;
23956;SDS011;12165;45.458;11.062;2022-08-19T04:02:02;10.35;;;2.58;;
23956;SDS011;12165;45.458;11.062;2022-08-19T04:04:34;12.35;;;2.75;;
23956;SDS011;12165;45.458;11.062;2022-08-19T04:07:03;10.15;;;3.40;;
23956;SDS011;12165;45.458;11.062;2022-08-19T04:09:30;10.30;;;2.50;;
23956;SDS011;12165;45.458;11.062;2022-08-19T04:11:59;9.93;;;2.65;;
23956;SDS011;12165;45.458;11.062;2022-08-19T04:14:27;9.85;;;2.67;;
23956;SDS011;12165;45.458;11.062;2022-08-19T04:16:59;19.10;;;2.50;;
23956;SDS011;12165;45.458;11.062;2022-08-19T04:19:28;12.00;;;3.10;;
23956;SDS011;12165;45.458;11.062;2022-08-19T04:21:56;10.25;;;2.92;;
23956;SDS011;12165;45.458;11.062;2022-08-19T04:24:24;9.52;;;2.42;;
23956;SDS011;12165;45.458;11.062;2022-08-19T04:26:52;8.93;;;2.85;;
23956;SDS011;12165;45.458;11.062;2022-08-19T04:29:23;12.00;;;2.60;;
23956;SDS011;12165;45.458;11.062;2022-08-19T04:31:53;7.93;;;2.30;;
23956;SDS011;12165;45.458;11.062;2022-08-19T04:34:22;10.35;;;2.88;;
23956;SDS011;12165;45.458;11.062;2022-08-19T04:36:51;5.88;;;2.63;;
23956;SDS011;12165;45.458;11.062;2022-08-19T04:39:21;8.07;;;2.72;;
23956;SDS011;12165;45.458;11.062;2022-08-19T04:42:17;13.38;;;3.40;;
23956;SDS011;12165;45.458;11.062;2022-08-19T04:45:03;9.32;;;2.90;;
23956;SDS011;12165;45.458;11.062;2022-08-19T04:47:43;12.35;;;3.25;;
23956;SDS011;12165;45.458;11.062;2022-08-19T04:50:24;15.43;;;3.22;;
23956;SDS011;12165;45.458;11.062;2022-08-19T04:52:52;10.68;;;3.75;;
23956;SDS011;12165;45.458;11.062;2022-08-19T04:55:21;9.27;;;2.90;;
23956;SDS011;12165;45.458;11.062;2022-08-19T04:57:51;10.93;;;3.53;;
23956;SDS011;12165;45.458;11.062;2022-08-19T05:00:19;14.63;;;3.78;;
23956;SDS011;12165;45.458;11.062;2022-08-19T05:02:46;12.15;;;3.58;;
23956;SDS011;12165;45.458;11.062;2022-08-19T05:05:15;9.70;;;3.92;;
23956;SDS011;12165;45.458;11.062;2022-08-19T05:07:42;9.45;;;3.72;;
23956;SDS011;12165;45.458;11.062;2022-08-19T05:10:09;13.45;;;3.20;;
23956;SDS011;12165;45.458;11.062;2022-08-19T05:12:36;6.60;;;2.58;;
23956;SDS011;12165;45.458;11.062;2022-08-19T05:15:04;9.98;;;2.70;;
23956;SDS011;12165;45.458;11.062;2022-08-19T05:17:33;11.35;;;2.58;;
23956;SDS011;12165;45.458;11.062;2022-08-19T05:20:05;8.60;;;2.50;;
23956;SDS011;12165;45.458;11.062;2022-08-19T05:22:51;14.02;;;2.97;;
23956;SDS011;12165;45.458;11.062;2022-08-19T05:25:19;10.13;;;3.08;;
23956;SDS011;12165;45.458;11.062;2022-08-19T05:27:48;8.15;;;2.67;;
23956;SDS011;12165;45.458;11.062;2022-08-19T05:30:15;14.07;;;2.92;;
23956;SDS011;12165;45.458;11.062;2022-08-19T05:32:43;13.13;;;2.85;;
23956;SDS011;12165;45.458;11.062;2022-08-19T05:35:11;13.13;;;3.08;;
23956;SDS011;12165;45.458;11.062;2022-08-19T05:37:38;11.57;;;3.20;;
23956;SDS011;12165;45.458;11.062;2022-08-19T05:40:07;10.20;;;2.42;;
23956;SDS011;12165;45.458;11.062;2022-08-19T05:42:35;10.82;;;2.53;;
23956;SDS011;12165;45.458;11.062;2022-08-19T05:45:02;9.40;;;2.58;;
23956;SDS011;12165;45.458;11.062;2022-08-19T05:47:30;12.57;;;3.03;;
23956;SDS011;12165;45.458;11.062;2022-08-19T05:49:58;12.60;;;3.10;;
23956;SDS011;12165;45.458;11.062;2022-08-19T05:52:25;14.75;;;2.80;;
23956;SDS011;12165;45.458;11.062;2022-08-19T05:54:53;10.70;;;2.80;;
23956;SDS011;12165;45.458;11.062;2022-08-19T05:57:22;9.80;;;2.92;;
23956;SDS011;12165;45.458;11.062;2022-08-19T05:59:50;11.70;;;3.28;;
23956;SDS011;12165;45.458;11.062;2022-08-19T06:02:25;9.10;;;3.03;;
23956;SDS011;12165;45.458;11.062;2022-08-19T06:04:52;9.35;;;2.40;;
23956;SDS011;12165;45.458;11.062;2022-08-19T06:07:19;8.82;;;2.83;;
23956;SDS011;12165;45.458;11.062;2022-08-19T06:09:46;10.02;;;3.55;;
23956;SDS011;12165;45.458;11.062;2022-08-19T06:12:27;8.23;;;2.65;;
23956;SDS011;12165;45.458;11.062;2022-08-19T06:14:58;10.75;;;3.05;;
23956;SDS011;12165;45.458;11.062;2022-08-19T06:17:30;10.65;;;3.50;;
23956;SDS011;12165;45.458;11.062;2022-08-19T06:19:58;10.95;;;3.38;;
23956;SDS011;12165;45.458;11.062;2022-08-19T06:22:26;9.40;;;3.00;;
23956;SDS011;12165;45.458;11.062;2022-08-19T06:24:54;9.43;;;3.30;;
23956;SDS011;12165;45.458;11.062;2022-08-19T06:27:22;12.50;;;3.38;;
23956;SDS011;12165;45.458;11.062;2022-08-19T06:29:49;11.90;;;3.75;;
23956;SDS011;12165;45.458;11.062;2022-08-19T06:32:16;11.75;;;3.50;;
23956;SDS011;12165;45.458;11.062;2022-08-19T06:34:45;10.27;;;3.10;;
23956;SDS011;12165;45.458;11.062;2022-08-19T06:37:12;6.40;;;3.15;;
23956;SDS011;12165;45.458;11.062;2022-08-19T06:39:40;7.82;;;2.97;;
23956;SDS011;12165;45.458;11.062;2022-08-19T06:42:10;8.80;;;3.78;;
23956;SDS011;12165;45.458;11.062;2022-08-19T06:44:40;10.82;;;4.82;;
23956;SDS011;12165;45.458;11.062;2022-08-19T06:47:17;15.23;;;4.32;;
23956;SDS011;12165;45.458;11.062;2022-08-19T06:49:54;12.45;;;3.88;;
23956;SDS011;12165;45.458;11.062;2022-08-19T06:52:34;11.88;;;4.07;;
23956;SDS011;12165;45.458;11.062;2022-08-19T06:55:04;10.00;;;4.35;;
23956;SDS011;12165;45.458;11.062;2022-08-19T06:57:32;13.00;;;4.82;;
23956;SDS011;12165;45.458;11.062;2022-08-19T07:00:00;8.57;;;4.32;;
23956;SDS011;12165;45.458;11.062;2022-08-19T07:02:27;13.40;;;4.63;;
23956;SDS011;12165;45.458;11.062;2022-08-19T07:04:54;10.05;;;4.05;;
23956;SDS011;12165;45.458;11.062;2022-08-19T07:07:24;15.50;;;5.20;;
23956;SDS011;12165;45.458;11.062;2022-08-19T07:09:51;8.82;;;4.32;;
23956;SDS011;12165;45.458;11.062;2022-08-19T07:12:29;10.95;;;4.90;;
23956;SDS011;12165;45.458;11.062;2022-08-19T07:15:02;11.18;;;4.45;;
23956;SDS011;12165;45.458;11.062;2022-08-19T07:17:30;14.85;;;5.85;;
23956;SDS011;12165;45.458;11.062;2022-08-19T07:20:00;16.65;;;5.65;;
23956;SDS011;12165;45.458;11.062;2022-08-19T07:22:34;12.80;;;5.22;;
23956;SDS011;12165;45.458;11.062;2022-08-19T07:25:02;16.63;;;6.03;;
23956;SDS011;12165;45.458;11.062;2022-08-19T07:27:30;16.98;;;6.45;;
23956;SDS011;12165;45.458;11.062;2022-08-19T07:29:59;14.55;;;5.88;;
23956;SDS011;12165;45.458;11.062;2022-08-19T07:32:26;12.02;;;6.43;;
23956;SDS011;12165;45.458;11.062;2022-08-19T07:34:53;13.75;;;6.00;;
23956;SDS011;12165;45.458;11.062;2022-08-19T07:37:25;12.93;;;6.07;;
23956;SDS011;12165;45.458;11.062;2022-08-19T07:39:59;14.35;;;5.85;;
23956;SDS011;12165;45.458;11.062;2022-08-19T07:42:27;18.67;;;6.38;;
23956;SDS011;12165;45.458;11.062;2022-08-19T07:44:56;13.15;;;6.90;;
23956;SDS011;12165;45.458;11.062;2022-08-19T07:47:24;13.73;;;6.78;;
23956;SDS011;12165;45.458;11.062;2022-08-19T07:50:12;14.90;;;6.45;;
23956;SDS011;12165;45.458;11.062;2022-08-19T07:52:39;18.58;;;7.60;;
23956;SDS011;12165;45.458;11.062;2022-08-19T07:55:08;13.20;;;6.50;;
23956;SDS011;12165;45.458;11.062;2022-08-19T07:57:56;12.98;;;6.50;;
23956;SDS011;12165;45.458;11.062;2022-08-19T08:00:23;17.13;;;7.30;;
23956;SDS011;12165;45.458;11.062;2022-08-19T08:02:51;10.82;;;6.13;;
23956;SDS011;12165;45.458;11.062;2022-08-19T08:05:21;13.85;;;5.78;;
23956;SDS011;12165;45.458;11.062;2022-08-19T08:08:18;13.75;;;6.07;;
23956;SDS011;12165;45.458;11.062;2022-08-19T08:13:42;15.52;;;6.18;;
23956;SDS011;12165;45.458;11.062;2022-08-19T08:16:10;15.73;;;6.05;;
23956;SDS011;12165;45.458;11.062;2022-08-19T08:18:40;12.32;;;5.70;;
23956;SDS011;12165;45.458;11.062;2022-08-19T08:21:15;12.52;;;5.68;;
23956;SDS011;12165;45.458;11.062;2022-08-19T08:23:42;16.00;;;5.60;;
23956;SDS011;12165;45.458;11.062;2022-08-19T08:26:09;11.43;;;5.20;;
23956;SDS011;12165;45.458;11.062;2022-08-19T08:28:38;11.73;;;4.55;;
23956;SDS011;12165;45.458;11.062;2022-08-19T08:31:06;11.90;;;4.45;;
23956;SDS011;12165;45.458;11.062;2022-08-19T08:33:35;8.68;;;3.90;;
23956;SDS011;12165;45.458;11.062;2022-08-19T08:36:05;8.55;;;3.95;;
23956;SDS011;12165;45.458;11.062;2022-08-19T08:38:32;10.27;;;4.78;;
23956;SDS011;12165;45.458;11.062;2022-08-19T08:41:08;14.85;;;4.05;;
23956;SDS011;12165;45.458;11.062;2022-08-19T08:43:54;10.65;;;4.25;;
23956;SDS011;12165;45.458;11.062;2022-08-19T08:51:48;12.40;;;4.53;;
23956;SDS011;12165;45.458;11.062;2022-08-19T08:54:27;9.27;;;3.67;;
23956;SDS011;12165;45.458;11.062;2022-08-19T08:57:39;7.57;;;4.53;;
23956;SDS011;12165;45.458;11.062;2022-08-19T09:00:22;12.57;;;5.35;;
23956;SDS011;12165;45.458;11.062;2022-08-19T09:03:01;14.70;;;5.78;;
23956;SDS011;12165;45.458;11.062;2022-08-19T09:05:41;15.27;;;6.65;;
23956;SDS011;12165;45.458;11.062;2022-08-19T09:08:36;13.27;;;7.80;;
23956;SDS011;12165;45.458;11.062;2022-08-19T09:11:10;17.50;;;9.45;;
23956;SDS011;12165;45.458;11.062;2022-08-19T09:14:23;14.80;;;9.88;;
23956;SDS011;12165;45.458;11.062;2022-08-19T09:17:22;12.80;;;8.25;;
23956;SDS011;12165;45.458;11.062;2022-08-19T09:20:03;14.77;;;8.43;;
23956;SDS011;12165;45.458;11.062;2022-08-19T09:22:35;11.02;;;7.43;;
23956;SDS011;12165;45.458;11.062;2022-08-19T09:25:04;13.00;;;6.65;;
23956;SDS011;12165;45.458;11.062;2022-08-19T09:27:33;14.02;;;7.10;;
23956;SDS011;12165;45.458;11.062;2022-08-19T09:30:19;11.10;;;6.05;;
23956;SDS011;12165;45.458;11.062;2022-08-19T09:32:50;10.63;;;5.68;;
23956;SDS011;12165;45.458;11.062;2022-08-19T09:35:20;13.15;;;5.25;;
23956;SDS011;12165;45.458;11.062;2022-08-19T09:37:49;12.18;;;5.15;;
23956;SDS011;12165;45.458;11.062;2022-08-19T09:40:23;6.30;;;4.10;;
23956;SDS011;12165;45.458;11.062;2022-08-19T09:42:51;12.25;;;5.53;;
23956;SDS011;12165;45.458;11.062;2022-08-19T09:45:19;8.48;;;5.78;;
23956;SDS011;12165;45.458;11.062;2022-08-19T09:47:49;12.13;;;5.68;;
23956;SDS011;12165;45.458;11.062;2022-08-19T09:50:20;8.93;;;4.57;;
23956;SDS011;12165;45.458;11.062;2022-08-19T09:52:49;8.75;;;5.13;;
23956;SDS011;12165;45.458;11.062;2022-08-19T09:55:22;8.93;;;4.40;;
23956;SDS011;12165;45.458;11.062;2022-08-19T09:57:59;8.77;;;4.03;;
23956;SDS011;12165;45.458;11.062;2022-08-19T10:00:27;9.00;;;3.40;;
23956;SDS011;12165;45.458;11.062;2022-08-19T10:02:55;5.53;;;2.80;;
23956;SDS011;12165;45.458;11.062;2022-08-19T10:05:22;5.05;;;2.53;;
23956;SDS011;12165;45.458;11.062;2022-08-19T10:08:08;6.20;;;2.85;;
23956;SDS011;12165;45.458;11.062;2022-08-19T10:10:40;6.32;;;2.40;;
23956;SDS011;12165;45.458;11.062;2022-08-19T10:13:13;7.43;;;2.38;;
23956;SDS011;12165;45.458;11.062;2022-08-19T10:15:42;6.15;;;2.20;;
23956;SDS011;12165;45.458;11.062;2022-08-19T10:18:13;6.00;;;2.50;;
23956;SDS011;12165;45.458;11.062;2022-08-19T10:20:40;5.18;;;2.20;;
23956;SDS011;12165;45.458;11.062;2022-08-19T10:23:08;3.88;;;2.20;;
23956;SDS011;12165;45.458;11.062;2022-08-19T10:25:35;6.63;;;2.13;;
23956;SDS011;12165;45.458;11.062;2022-08-19T10:28:04;6.30;;;2.17;;
23956;SDS011;12165;45.458;11.062;2022-08-19T10:30:36;4.60;;;2.13;;
23956;SDS011;12165;45.458;11.062;2022-08-19T10:33:04;6.68;;;1.90;;
23956;SDS011;12165;45.458;11.062;2022-08-19T10:35:36;5.45;;;2.15;;
23956;SDS011;12165;45.458;11.062;2022-08-19T10:38:22;5.97;;;2.17;;
23956;SDS011;12165;45.458;11.062;2022-08-19T10:40:57;4.18;;;2.00;;
23956;SDS011;12165;45.458;11.062;2022-08-19T10:43:32;4.97;;;1.90;;
23956;SDS011;12165;45.458;11.062;2022-08-19T10:46:03;4.70;;;2.40;;
23956;SDS011;12165;45.458;11.062;2022-08-19T10:48:40;4.45;;;2.20;;
23956;SDS011;12165;45.458;11.062;2022-08-19T10:51:08;5.00;;;2.10;;
23956;SDS011;12165;45.458;11.062;2022-08-19T10:53:55;4.45;;;2.28;;
23956;SDS011;12165;45.458;11.062;2022-08-19T10:56:22;6.82;;;2.20;;
23956;SDS011;12165;45.458;11.062;2022-08-19T10:59:08;9.10;;;3.75;;
23956;SDS011;12165;45.458;11.062;2022-08-19T11:01:35;5.65;;;2.70;;
23956;SDS011;12165;45.458;11.062;2022-08-19T11:04:03;8.38;;;3.10;;
23956;SDS011;12165;45.458;11.062;2022-08-19T11:06:31;6.30;;;2.75;;
23956;SDS011;12165;45.458;11.062;2022-08-19T11:08:58;8.65;;;4.03;;
23956;SDS011;12165;45.458;11.062;2022-08-19T11:11:26;14.35;;;4.88;;
23956;SDS011;12165;45.458;11.062;2022-08-19T11:13:55;6.28;;;3.40;;
23956;SDS011;12165;45.458;11.062;2022-08-19T11:16:23;13.00;;;4.82;;
23956;SDS011;12165;45.458;11.062;2022-08-19T11:18:57;9.50;;;3.63;;
23956;SDS011;12165;45.458;11.062;2022-08-19T11:21:29;13.23;;;5.18;;
23956;SDS011;12165;45.458;11.062;2022-08-19T11:23:59;8.57;;;3.67;;
23956;SDS011;12165;45.458;11.062;2022-08-19T11:26:29;9.15;;;3.85;;
23956;SDS011;12165;45.458;11.062;2022-08-19T11:28:57;7.07;;;4.03;;
23956;SDS011;12165;45.458;11.062;2022-08-19T11:31:26;8.45;;;4.13;;
23956;SDS011;12165;45.458;11.062;2022-08-19T11:33:57;8.35;;;4.00;;
23956;SDS011;12165;45.458;11.062;2022-08-19T11:36:26;8.00;;;4.10;;
23956;SDS011;12165;45.458;11.062;2022-08-19T11:38:54;7.70;;;3.90;;
23956;SDS011;12165;45.458;11.062;2022-08-19T11:41:22;7.95;;;4.03;;
23956;SDS011;12165;45.458;11.062;2022-08-19T11:43:50;8.35;;;4.63;;
23956;SDS011;12165;45.458;11.062;2022-08-19T11:46:20;11.65;;;4.65;;
23956;SDS011;12165;45.458;11.062;2022-08-19T11:48:49;10.25;;;4.22;;
23956;SDS011;12165;45.458;11.062;2022-08-19T11:51:17;9.63;;;4.25;;
23956;SDS011;12165;45.458;11.062;2022-08-19T11:53:48;8.43;;;4.45;;
23956;SDS011;12165;45.458;11.062;2022-08-19T11:56:17;9.65;;;4.70;;
23956;SDS011;12165;45.458;11.062;2022-08-19T11:58:45;9.68;;;4.80;;
23956;SDS011;12165;45.458;11.062;2022-08-19T12:01:13;6.72;;;4.07;;
23956;SDS011;12165;45.458;11.062;2022-08-19T12:03:43;8.93;;;4.53;;
23956;SDS011;12165;45.458;11.062;2022-08-19T12:06:13;7.25;;;5.05;;
23956;SDS011;12165;45.458;11.062;2022-08-19T12:08:55;6.70;;;3.80;;
23956;SDS011;12165;45.458;11.062;2022-08-19T12:11:23;9.32;;;4.68;;
23956;SDS011;12165;45.458;11.062;2022-08-19T12:13:50;10.60;;;4.60;;
23956;SDS011;12165;45.458;11.062;2022-08-19T12:16:18;7.55;;;4.72;;
23956;SDS011;12165;45.458;11.062;2022-08-19T12:18:47;11.05;;;4.57;;
23956;SDS011;12165;45.458;11.062;2022-08-19T12:21:15;8.07;;;4.47;;
23956;SDS011;12165;45.458;11.062;2022-08-19T12:23:48;9.70;;;4.53;;
23956;SDS011;12165;45.458;11.062;2022-08-19T12:26:21;6.22;;;4.25;;
23956;SDS011;12165;45.458;11.062;2022-08-19T12:28:48;8.07;;;3.83;;
23956;SDS011;12165;45.458;11.062;2022-08-19T12:31:16;8.60;;;4.25;;
23956;SDS011;12165;45.458;11.062;2022-08-19T12:33:44;7.63;;;4.38;;
23956;SDS011;12165;45.458;11.062;2022-08-19T12:36:11;5.75;;;3.83;;
23956;SDS011;12165;45.458;11.062;2022-08-19T12:38:40;7.93;;;4.28;;
23956;SDS011;12165;45.458;11.062;2022-08-19T12:41:09;7.72;;;4.25;;
23956;SDS011;12165;45.458;11.062;2022-08-19T12:43:38;7.68;;;4.03;;
23956;SDS011;12165;45.458;11.062;2022-08-19T12:46:05;8.25;;;4.57;;
23956;SDS011;12165;45.458;11.062;2022-08-19T12:48:36;6.57;;;3.85;;
23956;SDS011;12165;45.458;11.062;2022-08-19T12:51:06;9.48;;;3.92;;
23956;SDS011;12165;45.458;11.062;2022-08-19T12:53:35;7.97;;;4.10;;
23956;SDS011;12165;45.458;11.062;2022-08-19T12:56:05;8.23;;;4.18;;
23956;SDS011;12165;45.458;11.062;2022-08-19T12:58:37;8.43;;;4.45;;
23956;SDS011;12165;45.458;11.062;2022-08-19T13:01:09;5.93;;;4.28;;
23956;SDS011;12165;45.458;11.062;2022-08-19T13:03:44;7.18;;;4.03;;
23956;SDS011;12165;45.458;11.062;2022-08-19T13:06:12;7.95;;;4.13;;
23956;SDS011;12165;45.458;11.062;2022-08-19T13:08:44;6.47;;;3.75;;
23956;SDS011;12165;45.458;11.062;2022-08-19T13:11:12;4.63;;;3.05;;
23956;SDS011;12165;45.458;11.062;2022-08-19T13:13:41;3.53;;;3.10;;
23956;SDS011;12165;45.458;11.062;2022-08-19T13:16:10;6.05;;;2.95;;
23956;SDS011;12165;45.458;11.062;2022-08-19T13:18:38;7.00;;;3.20;;
23956;SDS011;12165;45.458;11.062;2022-08-19T13:21:08;6.03;;;2.80;;
23956;SDS011;12165;45.458;11.062;2022-08-19T13:23:39;7.47;;;3.10;;
23956;SDS011;12165;45.458;11.062;2022-08-19T13:26:07;7.35;;;3.08;;
23956;SDS011;12165;45.458;11.062;2022-08-19T13:28:36;9.32;;;2.92;;
23956;SDS011;12165;45.458;11.062;2022-08-19T13:31:23;5.93;;;2.88;;
23956;SDS011;12165;45.458;11.062;2022-08-19T13:34:09;5.35;;;2.83;;
23956;SDS011;12165;45.458;11.062;2022-08-19T13:36:37;6.50;;;2.65;;
23956;SDS011;12165;45.458;11.062;2022-08-19T13:39:05;5.45;;;2.17;;
23956;SDS011;12165;45.458;11.062;2022-08-19T13:41:33;3.75;;;2.28;;
23956;SDS011;12165;45.458;11.062;2022-08-19T13:44:02;6.53;;;2.63;;
23956;SDS011;12165;45.458;11.062;2022-08-19T13:46:30;5.07;;;2.35;;
23956;SDS011;12165;45.458;11.062;2022-08-19T13:48:57;5.63;;;2.05;;
23956;SDS011;12165;45.458;11.062;2022-08-19T13:51:24;6.70;;;2.42;;
23956;SDS011;12165;45.458;11.062;2022-08-19T13:53:51;6.15;;;2.30;;
23956;SDS011;12165;45.458;11.062;2022-08-19T13:56:18;5.05;;;1.90;;
23956;SDS011;12165;45.458;11.062;2022-08-19T13:58:51;6.00;;;2.10;;
23956;SDS011;12165;45.458;11.062;2022-08-19T14:01:23;4.05;;;2.05;;
23956;SDS011;12165;45.458;11.062;2022-08-19T14:03:50;5.63;;;2.55;;
23956;SDS011;12165;45.458;11.062;2022-08-19T14:06:17;6.93;;;2.17;;
23956;SDS011;12165;45.458;11.062;2022-08-19T14:08:45;3.00;;;1.80;;
23956;SDS011;12165;45.458;11.062;2022-08-19T14:11:12;5.13;;;2.35;;
23956;SDS011;12165;45.458;11.062;2022-08-19T14:13:40;3.97;;;2.10;;
23956;SDS011;12165;45.458;11.062;2022-08-19T14:16:11;5.97;;;2.05;;
23956;SDS011;12165;45.458;11.062;2022-08-19T14:18:40;4.95;;;1.83;;
23956;SDS011;12165;45.458;11.062;2022-08-19T14:21:07;5.07;;;2.15;;
23956;SDS011;12165;45.458;11.062;2022-08-19T14:23:41;5.68;;;2.20;;
23956;SDS011;12165;45.458;11.062;2022-08-19T14:26:10;3.60;;;1.73;;
23956;SDS011;12165;45.458;11.062;2022-08-19T14:28:40;6.30;;;2.20;;
23956;SDS011;12165;45.458;11.062;2022-08-19T14:31:09;5.70;;;2.40;;
23956;SDS011;12165;45.458;11.062;2022-08-19T14:33:37;5.13;;;2.25;;
23956;SDS011;12165;45.458;11.062;2022-08-19T14:36:04;6.10;;;2.50;;
23956;SDS011;12165;45.458;11.062;2022-08-19T14:38:31;4.97;;;2.33;;
23956;SDS011;12165;45.458;11.062;2022-08-19T14:41:09;4.95;;;2.05;;
23956;SDS011;12165;45.458;11.062;2022-08-19T14:43:40;5.50;;;2.30;;
23956;SDS011;12165;45.458;11.062;2022-08-19T14:46:07;4.78;;;2.10;;
23956;SDS011;12165;45.458;11.062;2022-08-19T14:48:36;5.03;;;2.40;;
23956;SDS011;12165;45.458;11.062;2022-08-19T14:51:07;4.00;;;1.90;;
23956;SDS011;12165;45.458;11.062;2022-08-19T14:53:34;4.55;;;2.13;;
23956;SDS011;12165;45.458;11.062;2022-08-19T14:56:06;5.03;;;2.10;;
23956;SDS011;12165;45.458;11.062;2022-08-19T14:58:40;4.53;;;2.10;;